Time;durP1;ratioP1;P1;durP2;ratioP2;P2;SDS_P1;SDS_P2;PMS_P1;PMS_P2;Temp;Humidity;BMP_temperature;BMP_pressure;BME280_temperature;BME280_humidity;BME280_pressure;Samples;Min_cycle;Max_cycle;Signal;HPM_P1;HPM_P2
2020/12/30 00:00:58;;;;;;;11.90;7.20;;;5.50;88.70;;;5.69;72.97;98611.13;5075518;28;20123;-83
2020/12/30 00:03:24;;;;;;;13.57;7.75;;;5.80;88.80;;;5.59;72.93;98608.78;5076269;28;20056;-84
2020/12/30 00:05:52;;;;;;;18.08;7.78;;;5.50;88.90;;;5.57;72.95;98615.41;5075014;28;20071;-83
2020/12/30 00:08:19;;;;;;;12.32;7.50;;;5.50;88.90;;;5.58;73.11;98607.13;5075377;28;20048;-83
2020/12/30 00:10:45;;;;;;;15.98;7.97;;;5.50;88.80;;;5.54;73.35;98596.91;5076238;28;20059;-83
2020/12/30 00:13:12;;;;;;;16.80;7.85;;;5.40;88.60;;;5.60;72.99;98601.53;5076380;28;20158;-83
2020/12/30 00:15:40;;;;;;;12.20;7.20;;;5.40;88.60;;;5.59;72.82;98598.00;5079156;28;20060;-83
2020/12/30 00:18:07;;;;;;;14.18;7.03;;;5.30;88.30;;;5.61;72.53;98600.50;5079869;28;20102;-84
2020/12/30 00:20:33;;;;;;;12.57;7.22;;;5.30;88.70;;;5.64;72.47;98608.19;5080214;28;20131;-84
2020/12/30 00:23:00;;;;;;;14.68;7.25;;;5.20;88.70;;;5.58;71.91;98603.59;5078930;28;20068;-83
2020/12/30 00:25:27;;;;;;;10.98;7.00;;;5.10;88.80;;;5.55;72.08;98606.69;5080217;28;20036;-83
2020/12/30 00:27:54;;;;;;;15.55;7.28;;;5.10;88.80;;;5.51;72.71;98606.25;5079059;28;20040;-83
2020/12/30 00:30:21;;;;;;;11.32;6.72;;;5.10;88.80;;;5.52;72.03;98612.47;5078700;28;20036;-83
2020/12/30 00:32:49;;;;;;;13.80;7.70;;;5.00;88.90;;;5.49;71.92;98611.84;5079676;28;20041;-83
2020/12/30 00:35:17;;;;;;;12.75;7.45;;;4.90;89.00;;;5.45;72.20;98613.28;5080045;28;20457;-83
2020/12/30 00:37:44;;;;;;;13.07;8.10;;;4.90;89.10;;;5.41;71.88;98621.97;5079210;28;20045;-84
2020/12/30 00:40:11;;;;;;;13.60;7.20;;;4.90;88.90;;;5.37;71.60;98626.94;5079782;28;20037;-84
2020/12/30 00:42:39;;;;;;;17.73;8.00;;;4.80;88.90;;;5.34;71.87;98630.03;5079271;28;20048;-83
2020/12/30 00:45:08;;;;;;;14.93;7.13;;;4.80;89.00;;;5.35;71.60;98629.00;5079498;28;20051;-83
2020/12/30 00:47:35;;;;;;;15.13;7.40;;;4.80;89.20;;;5.30;71.59;98631.44;5077598;28;20436;-84
2020/12/30 00:50:04;;;;;;;13.18;7.30;;;4.70;89.10;;;5.28;71.41;98634.34;5078686;28;20568;-84
2020/12/30 00:52:35;;;;;;;14.35;7.60;;;4.70;89.20;;;5.29;71.67;98629.78;5076007;28;20571;-83
2020/12/30 00:55:02;;;;;;;15.80;7.63;;;4.60;89.20;;;5.26;71.53;98636.41;5060500;28;20408;-83
2020/12/30 00:57:42;;;;;;;11.63;7.22;;;4.60;89.40;;;5.25;71.43;98633.88;5076964;28;20051;-83
2020/12/30 01:00:09;;;;;;;19.10;8.30;;;4.60;89.40;;;5.22;71.37;98639.69;5079146;28;20580;-84
2020/12/30 01:02:55;;;;;;;13.48;7.43;;;4.60;89.30;;;5.18;71.82;98643.78;5079954;28;20063;-84
2020/12/30 01:05:22;;;;;;;13.95;7.55;;;4.50;89.60;;;5.18;71.70;98639.25;5079047;28;20072;-83
2020/12/30 01:07:49;;;;;;;15.50;7.45;;;4.50;89.60;;;5.17;71.48;98640.28;5079091;28;20045;-83
2020/12/30 01:10:16;;;;;;;13.63;7.90;;;4.50;89.70;;;5.16;71.59;98645.84;5078247;28;20049;-84
2020/12/30 01:12:42;;;;;;;16.52;7.60;;;4.50;89.80;;;5.16;71.54;98645.84;5078306;28;20071;-84
2020/12/30 01:15:09;;;;;;;18.75;8.05;;;4.40;89.80;;;5.17;71.48;98650.22;5078332;28;20083;-84
2020/12/30 01:17:36;;;;;;;13.07;7.90;;;4.40;89.90;;;5.17;71.45;98650.22;5078458;28;20067;-83
2020/12/30 01:20:03;;;;;;;15.82;7.38;;;4.40;89.90;;;5.13;71.38;98646.25;5078190;28;20508;-84
2020/12/30 01:22:30;;;;;;;13.82;7.75;;;4.40;89.90;;;5.07;71.39;98648.69;5079138;28;20048;-83
2020/12/30 01:24:57;;;;;;;17.20;8.73;;;4.30;89.80;;;5.07;71.76;98651.41;5078252;28;20119;-83
2020/12/30 01:27:24;;;;;;;12.50;7.65;;;4.30;89.90;;;5.05;71.42;98645.38;5076864;28;20048;-83
2020/12/30 01:29:51;;;;;;;15.35;7.72;;;4.30;89.90;;;5.04;71.38;98653.66;5078366;28;20047;-83
2020/12/30 01:32:17;;;;;;;14.82;8.20;;;4.30;90.00;;;5.02;71.23;98656.53;5078183;28;20089;-83
2020/12/30 01:34:44;;;;;;;17.10;8.50;;;4.20;89.90;;;4.99;71.34;98656.94;5078420;28;20036;-83
2020/12/30 01:37:11;;;;;;;21.92;9.55;;;4.20;90.00;;;4.99;71.26;98656.94;5078039;28;20131;-83
2020/12/30 01:39:38;;;;;;;14.50;8.20;;;4.20;90.00;;;4.98;71.44;98657.13;5078462;28;20060;-83
2020/12/30 01:42:05;;;;;;;15.45;7.78;;;4.20;90.00;;;4.92;71.54;98655.22;5077911;28;20083;-83
2020/12/30 01:44:32;;;;;;;13.73;8.10;;;4.20;90.00;;;4.93;71.20;98657.72;5078014;28;20075;-83
2020/12/30 01:47:00;;;;;;;14.85;8.75;;;4.10;90.00;;;4.91;71.36;98657.06;5077627;28;20048;-84
2020/12/30 01:49:27;;;;;;;14.73;8.18;;;4.10;90.00;;;4.89;71.47;98656.41;5077592;28;20076;-83
2020/12/30 01:51:55;;;;;;;12.90;7.53;;;4.10;90.20;;;4.88;71.23;98657.47;5078063;28;20083;-83
2020/12/30 01:54:22;;;;;;;15.50;8.25;;;4.10;90.10;;;4.86;71.34;98662.22;5077863;28;20127;-83
2020/12/30 01:56:50;;;;;;;15.65;8.05;;;4.00;90.00;;;4.81;71.37;98659.25;5077766;28;20048;-83
2020/12/30 01:59:18;;;;;;;14.30;8.13;;;4.00;90.40;;;4.83;71.60;98662.59;5077087;28;20041;-83
2020/12/30 02:01:51;;;;;;;15.60;8.98;;;4.00;90.20;;;4.84;71.49;98666.97;5078427;28;20408;-84
2020/12/30 02:04:25;;;;;;;16.17;8.50;;;4.00;90.30;;;4.83;71.47;98665.28;5077984;28;20042;-83
2020/12/30 02:06:52;;;;;;;15.73;8.30;;;4.00;90.20;;;4.81;71.66;98667.34;5078249;28;20044;-83
2020/12/30 02:09:19;;;;;;;17.65;8.82;;;4.00;90.20;;;4.79;71.42;98666.72;5078119;28;20454;-83
2020/12/30 02:11:50;;;;;;;17.02;9.38;;;4.00;90.40;;;4.74;71.71;98667.28;5078096;28;20044;-83
2020/12/30 02:14:17;;;;;;;23.25;8.75;;;4.00;90.40;;;4.77;71.66;98671.44;5077964;28;20135;-83
2020/12/30 02:16:49;;;;;;;18.83;9.45;;;4.00;90.60;;;4.78;71.98;98671.28;5078078;28;20155;-83
2020/12/30 02:19:16;;;;;;;17.25;8.25;;;4.00;90.70;;;4.78;71.67;98681.19;5077507;28;20060;-84
2020/12/30 02:21:44;;;;;;;15.07;9.30;;;4.00;90.70;;;4.77;71.79;98677.66;5078081;28;20051;-84
2020/12/30 02:24:16;;;;;;;17.17;8.73;;;4.00;90.90;;;4.77;71.67;98679.53;5077836;28;20099;-83
2020/12/30 02:26:43;;;;;;;19.25;8.52;;;4.00;90.60;;;4.73;71.79;98683.66;5077635;28;20119;-84
2020/12/30 02:29:10;;;;;;;16.35;8.77;;;3.90;90.60;;;4.70;71.72;98672.22;5077452;28;20067;-83
2020/12/30 02:31:37;;;;;;;17.02;9.10;;;3.90;90.60;;;4.68;71.59;98682.38;5077708;28;20047;-83
2020/12/30 02:34:03;;;;;;;13.93;8.60;;;3.90;90.70;;;4.65;72.04;98680.03;5078209;28;20045;-83
2020/12/30 02:36:30;;;;;;;17.33;8.93;;;3.90;90.70;;;4.65;71.85;98680.03;5077271;28;20079;-83
2020/12/30 02:38:57;;;;;;;16.73;8.85;;;3.90;90.80;;;4.66;72.25;98684.44;5076572;28;20051;-83
2020/12/30 02:41:24;;;;;;;16.92;9.25;;;3.90;91.10;;;4.67;72.31;98683.38;5077251;28;20079;-83
2020/12/30 02:43:51;;;;;;;16.02;9.30;;;3.90;91.20;;;4.67;72.48;98686.06;5077574;28;20048;-83
2020/12/30 02:46:18;;;;;;;17.60;8.88;;;3.90;91.20;;;4.65;72.54;98687.31;5077010;28;20433;-83
2020/12/30 02:48:45;;;;;;;17.83;9.27;;;3.90;91.30;;;4.63;72.74;98694.75;5076777;28;20059;-83
2020/12/30 02:51:11;;;;;;;17.30;9.10;;;3.90;91.50;;;4.66;72.67;98689.81;5077675;28;20446;-84
2020/12/30 02:53:38;;;;;;;15.18;9.25;;;3.90;91.60;;;4.69;73.03;98696.66;5076884;28;20060;-83
2020/12/30 02:56:05;;;;;;;17.60;9.00;;;3.90;91.90;;;4.69;72.97;98697.50;5076837;28;20064;-83
2020/12/30 02:58:32;;;;;;;18.65;9.38;;;4.00;92.00;;;4.67;73.50;98696.03;5076647;28;20512;-83
2020/12/30 03:00:59;;;;;;;19.00;8.88;;;4.00;92.00;;;4.70;73.47;98701.00;5076834;28;20041;-83
2020/12/30 03:03:26;;;;;;;18.73;9.88;;;4.00;92.10;;;4.73;73.35;98707.91;5076917;28;20087;-83
2020/12/30 03:05:54;;;;;;;19.58;9.45;;;4.00;92.20;;;4.77;73.28;98704.63;5076424;28;20043;-83
2020/12/30 03:08:21;;;;;;;17.85;9.05;;;4.10;92.30;;;4.74;73.50;98702.31;5076302;28;20136;-83
2020/12/30 03:10:48;;;;;;;17.42;9.55;;;4.10;92.30;;;4.75;73.90;98703.97;5077114;28;20127;-83
2020/12/30 03:13:14;;;;;;;19.45;9.52;;;4.10;92.50;;;4.74;73.71;98706.84;5076473;28;20060;-83
2020/12/30 03:15:41;;;;;;;18.83;9.50;;;4.10;92.30;;;4.73;74.21;98716.81;5076224;28;20076;-83
2020/12/30 03:18:09;;;;;;;17.80;9.68;;;4.10;92.40;;;4.69;74.09;98715.53;5076825;28;20076;-83
2020/12/30 03:20:35;;;;;;;16.73;9.57;;;4.20;92.60;;;4.73;74.11;98716.00;5076500;28;20423;-84
2020/12/30 03:23:02;;;;;;;17.42;9.85;;;4.20;92.60;;;4.77;74.60;98717.25;5076582;28;20048;-83
2020/12/30 03:25:29;;;;;;;15.52;9.10;;;4.20;92.70;;;4.77;74.22;98719.97;5076450;28;20062;-83
2020/12/30 03:27:56;;;;;;;17.83;10.00;;;4.30;93.00;;;4.77;74.92;98717.25;5076069;28;20120;-83
2020/12/30 03:30:23;;;;;;;17.73;9.73;;;4.30;93.20;;;4.80;74.90;98715.03;5076276;28;20036;-83
2020/12/30 03:32:50;;;;;;;16.95;9.98;;;4.30;93.20;;;4.83;74.67;98716.50;5076084;28;20040;-83
2020/12/30 03:35:18;;;;;;;18.77;10.27;;;4.30;93.40;;;4.77;75.45;98714.56;5076387;28;20044;-83
2020/12/30 03:37:45;;;;;;;17.48;10.00;;;4.30;93.40;;;4.81;75.42;98710.47;5074627;28;20108;-83
2020/12/30 03:40:12;;;;;;;20.13;11.60;;;4.40;93.40;;;4.85;75.83;98719.81;5067986;28;20076;-83
2020/12/30 03:42:39;;;;;;;20.40;11.38;;;4.40;93.50;;;4.91;75.44;98713.66;5092398;28;20041;-84
2020/12/30 03:45:05;;;;;;;20.45;10.45;;;4.40;93.40;;;4.90;75.42;98717.41;5075647;28;20045;-83
2020/12/30 03:47:32;;;;;;;22.17;11.95;;;4.40;93.40;;;4.92;75.59;98714.50;5070331;28;20147;-83
2020/12/30 03:49:59;;;;;;;17.40;10.70;;;4.50;93.50;;;4.90;75.32;98722.78;5059050;28;20501;-83
2020/12/30 03:52:26;;;;;;;23.00;11.65;;;4.50;93.40;;;4.82;76.28;98717.53;5060445;28;20080;-83
2020/12/30 03:54:53;;;;;;;21.15;11.73;;;4.50;93.60;;;4.87;76.29;98723.16;5068278;28;20124;-83
2020/12/30 03:57:20;;;;;;;20.58;11.07;;;4.50;93.60;;;4.87;75.97;98717.78;5072730;28;20128;-84
2020/12/30 03:59:46;;;;;;;27.90;14.55;;;4.50;93.50;;;4.90;75.68;98714.72;5080619;28;20297;-83
2020/12/30 04:02:13;;;;;;;18.48;11.20;;;4.50;93.30;;;4.90;75.75;98720.91;5080987;28;20063;-83
2020/12/30 04:04:40;;;;;;;23.30;11.90;;;4.50;93.10;;;4.93;75.69;98722.41;5080110;28;20041;-83
2020/12/30 04:07:06;;;;;;;18.33;11.13;;;4.50;93.20;;;4.96;75.83;98727.41;5078819;28;20478;-84
2020/12/30 04:09:34;;;;;;;19.20;11.00;;;4.60;93.20;;;4.94;75.77;98718.69;5079864;28;20135;-83
2020/12/30 04:12:01;;;;;;;18.33;11.40;;;4.60;93.20;;;4.96;75.69;98721.19;5079922;28;20040;-83
2020/12/30 04:14:28;;;;;;;20.63;11.35;;;4.60;93.20;;;4.92;75.74;98715.34;5079762;28;20122;-83
2020/12/30 04:16:55;;;;;;;20.20;11.95;;;4.60;93.40;;;4.94;75.73;98724.06;5079549;28;20074;-83
2020/12/30 04:19:22;;;;;;;19.52;11.40;;;4.60;93.60;;;4.97;76.01;98723.69;5079662;28;20071;-83
2020/12/30 04:21:49;;;;;;;21.05;12.25;;;4.60;93.70;;;4.99;75.91;98728.88;5079764;28;20112;-83
2020/12/30 04:24:16;;;;;;;23.85;12.13;;;4.60;93.60;;;5.00;76.03;98723.28;5079963;28;20096;-83
2020/12/30 04:26:44;;;;;;;19.63;11.32;;;4.60;93.60;;;5.00;75.99;98727.84;5079518;28;20060;-83
2020/12/30 04:29:10;;;;;;;20.63;10.82;;;4.60;93.50;;;4.97;75.61;98731.78;5079746;28;20123;-83
2020/12/30 04:31:37;;;;;;;19.50;12.13;;;4.70;93.60;;;5.01;75.93;98734.94;5078445;28;20158;-83
2020/12/30 04:34:05;;;;;;;21.48;12.43;;;4.60;93.70;;;5.00;76.12;98734.06;5076888;28;20087;-84
2020/12/30 04:36:32;;;;;;;22.23;12.75;;;4.60;93.60;;;5.01;76.10;98733.06;5073852;28;20471;-83
2020/12/30 04:38:59;;;;;;;20.95;12.50;;;4.60;93.40;;;4.97;76.25;98731.78;5079798;28;20043;-83
2020/12/30 04:41:32;;;;;;;21.95;12.88;;;4.70;93.70;;;5.00;76.04;98733.25;5079380;28;20116;-83
2020/12/30 04:44:01;;;;;;;23.65;12.90;;;4.70;93.50;;;4.98;76.00;98735.31;5079105;28;20036;-83
2020/12/30 04:46:29;;;;;;;22.73;13.25;;;4.70;93.40;;;4.94;76.35;98724.06;5079077;28;20071;-83
2020/12/30 04:48:57;;;;;;;20.85;12.15;;;4.70;93.50;;;4.95;76.08;98733.84;5078422;28;20068;-83
2020/12/30 04:51:25;;;;;;;23.05;13.45;;;4.70;93.20;;;4.90;76.19;98737.09;5079017;28;20048;-83
2020/12/30 04:53:57;;;;;;;20.80;12.70;;;4.70;93.20;;;4.94;75.88;98740.25;5079595;28;20407;-84
2020/12/30 04:56:54;;;;;;;21.85;12.05;;;4.70;93.10;;;4.89;75.86;98731.88;5078589;28;20177;-83
2020/12/30 04:59:25;;;;;;;21.05;12.20;;;4.70;93.00;;;4.83;76.04;98736.19;5078478;28;20579;-83
2020/12/30 05:02:03;;;;;;;27.73;13.77;;;4.70;93.00;;;4.79;76.26;98742.16;5078269;28;20040;-83
2020/12/30 05:04:31;;;;;;;23.20;13.77;;;4.70;92.90;;;4.87;76.34;98744.72;5079197;28;20056;-83
2020/12/30 05:07:04;;;;;;;25.35;13.93;;;4.70;93.20;;;4.87;76.40;98739.34;5078897;28;20040;-83
2020/12/30 05:09:34;;;;;;;22.95;13.30;;;4.60;93.00;;;4.80;76.50;98741.16;5078685;28;20055;-83
2020/12/30 05:12:01;;;;;;;22.77;13.80;;;4.60;93.00;;;4.80;76.81;98749.22;5078934;28;20060;-83
2020/12/30 05:14:28;;;;;;;23.85;13.68;;;4.70;93.40;;;4.87;76.61;98744.72;5078922;28;20123;-83
2020/12/30 05:16:55;;;;;;;22.83;12.65;;;4.60;93.20;;;4.78;76.74;98752.13;5078430;28;20071;-83
2020/12/30 05:19:22;;;;;;;25.55;13.40;;;4.60;93.00;;;4.84;76.80;98750.53;5079451;28;20530;-83
2020/12/30 05:21:48;;;;;;;26.45;14.95;;;4.60;93.30;;;4.83;76.85;98755.06;5078790;28;20040;-83
2020/12/30 05:24:15;;;;;;;25.25;14.02;;;4.60;93.50;;;4.85;76.98;98754.88;5078732;28;20072;-83
2020/12/30 05:26:42;;;;;;;26.42;13.80;;;4.70;93.60;;;4.92;77.08;98763.88;5078722;28;20085;-83
2020/12/30 05:29:11;;;;;;;25.20;14.57;;;4.80;93.60;;;4.90;76.36;98763.22;5078556;28;20072;-84
2020/12/30 05:31:40;;;;;;;25.35;13.57;;;4.70;93.70;;;4.85;76.55;98762.94;5078813;28;20068;-83
2020/12/30 05:34:07;;;;;;;23.23;13.68;;;4.70;93.60;;;4.85;77.00;98762.94;5078120;28;20090;-83
2020/12/30 05:36:34;;;;;;;26.90;13.63;;;4.70;93.30;;;4.78;77.18;98772.81;5078544;28;20064;-83
2020/12/30 05:39:00;;;;;;;20.55;12.40;;;4.70;93.40;;;4.83;77.26;98775.78;5078513;28;20064;-83
2020/12/30 05:41:27;;;;;;;24.30;12.88;;;4.70;93.40;;;4.87;77.07;98779.75;5077856;28;20080;-83
2020/12/30 05:43:54;;;;;;;22.00;13.40;;;4.70;93.70;;;4.89;76.88;98773.19;5078334;28;20123;-83
2020/12/30 05:46:28;;;;;;;24.35;14.07;;;4.70;93.60;;;4.85;77.04;98773.72;5078272;28;20045;-83
2020/12/30 05:48:56;;;;;;;22.85;13.52;;;4.70;93.70;;;4.89;77.10;98775.00;5077463;28;20079;-83
2020/12/30 05:51:28;;;;;;;27.00;14.23;;;4.70;93.70;;;4.91;77.13;98781.03;5078218;28;20048;-83
2020/12/30 05:54:12;;;;;;;26.38;14.18;;;4.80;94.00;;;4.90;77.47;98782.91;5077577;28;20078;-83
2020/12/30 05:56:40;;;;;;;24.27;14.35;;;4.70;93.90;;;4.94;77.39;98788.75;5078165;28;20060;-83
2020/12/30 05:59:07;;;;;;;24.75;14.10;;;4.80;93.90;;;5.03;77.11;98782.22;5075887;28;20068;-83
2020/12/30 06:01:40;;;;;;;22.98;13.63;;;4.80;94.00;;;4.98;77.23;98787.34;5077432;28;20096;-83
2020/12/30 06:04:19;;;;;;;24.98;13.88;;;4.80;94.00;;;4.98;77.52;98783.81;5077795;28;20055;-83
2020/12/30 06:06:48;;;;;;;26.77;13.95;;;4.80;94.10;;;5.01;77.39;98786.16;5077783;28;20471;-83
2020/12/30 06:09:18;;;;;;;24.15;14.50;;;4.80;93.90;;;5.03;77.49;98784.09;5077588;28;20492;-83
2020/12/30 06:11:53;;;;;;;24.27;14.25;;;4.90;94.10;;;5.03;77.38;98789.50;5076718;28;20045;-83
2020/12/30 06:14:21;;;;;;;24.38;14.15;;;4.90;93.90;;;5.01;77.84;98795.06;5077632;28;20071;-83
2020/12/30 06:16:48;;;;;;;24.73;14.40;;;4.90;94.10;;;5.08;77.43;98798.69;5077604;28;20047;-83
2020/12/30 06:19:16;;;;;;;24.92;13.43;;;5.00;94.10;;;5.11;77.23;98804.72;5077478;28;20461;-83
2020/12/30 06:21:45;;;;;;;24.77;13.75;;;4.90;93.80;;;5.08;77.53;98806.75;5077251;28;20106;-83
2020/12/30 06:24:14;;;;;;;23.75;13.75;;;5.00;94.00;;;5.12;77.54;98812.59;5077428;28;20044;-83
2020/12/30 06:26:42;;;;;;;24.88;13.68;;;5.00;94.00;;;5.14;77.52;98815.94;5077192;28;20107;-83
2020/12/30 06:29:14;;;;;;;23.35;13.38;;;4.90;94.00;;;5.13;77.60;98816.13;5076696;28;20182;-83
2020/12/30 06:31:46;;;;;;;25.90;13.38;;;5.00;93.80;;;5.11;77.41;98823.59;5076805;28;20143;-83
2020/12/30 06:34:14;;;;;;;29.70;13.50;;;5.00;94.00;;;5.08;77.78;98817.56;5077479;28;20082;-83
2020/12/30 06:36:45;;;;;;;21.55;13.43;;;5.00;93.90;;;5.11;77.83;98821.72;5076973;28;20382;-83
2020/12/30 06:39:17;;;;;;;21.00;13.45;;;5.00;94.10;;;5.12;77.65;98826.06;5076740;28;20044;-83
2020/12/30 06:42:05;;;;;;;24.88;14.00;;;5.20;94.00;;;5.14;77.46;98825.88;5076934;28;20079;-83
2020/12/30 06:44:40;;;;;;;24.60;12.73;;;5.10;93.90;;;5.16;77.42;98831.91;5076625;28;20060;-83
2020/12/30 06:47:09;;;;;;;24.85;12.80;;;5.10;93.80;;;5.17;77.76;98834.41;5076822;28;20064;-83
2020/12/30 06:49:36;;;;;;;22.17;12.80;;;5.10;93.90;;;5.15;77.59;98832.97;5076775;28;20044;-83
2020/12/30 06:52:20;;;;;;;26.63;12.75;;;5.10;93.80;;;5.19;77.47;98836.94;5076879;28;20059;-83
2020/12/30 06:54:48;;;;;;;21.98;12.65;;;5.10;93.70;;;5.22;78.00;98844.66;5075051;28;20188;-83
2020/12/30 06:57:36;;;;;;;25.05;13.85;;;5.10;93.80;;;5.23;77.28;98840.91;5076315;28;20048;-83
2020/12/30 07:00:34;;;;;;;24.83;14.18;;;5.10;94.00;;;5.31;77.47;98848.03;5071222;28;20071;-83
2020/12/30 07:03:31;;;;;;;26.20;13.70;;;5.10;93.80;;;5.24;77.43;98854.22;5076953;28;20552;-83
2020/12/30 07:06:26;;;;;;;22.48;12.52;;;5.10;93.70;;;5.22;77.45;98856.28;5068492;28;20106;-83
2020/12/30 07:08:55;;;;;;;22.70;12.95;;;5.20;93.50;;;5.26;77.38;98856.72;5076383;28;20048;-84
2020/12/30 07:11:40;;;;;;;22.88;12.57;;;5.20;93.50;;;5.20;77.47;98868.28;5077893;28;20122;-84
2020/12/30 07:14:07;;;;;;;23.67;12.85;;;5.20;93.20;;;5.24;77.36;98861.47;5077507;28;20104;-84
2020/12/30 07:16:35;;;;;;;23.63;13.75;;;5.20;93.10;;;5.22;77.34;98861.66;5075863;28;20041;-84
2020/12/30 07:19:08;;;;;;;25.35;13.50;;;5.20;93.10;;;5.23;77.57;98867.88;5071645;28;20083;-85
2020/12/30 07:21:48;;;;;;;27.75;12.93;;;5.20;93.10;;;5.23;77.20;98870.59;5070940;28;20084;-85
2020/12/30 07:24:20;;;;;;;23.90;13.50;;;5.20;93.00;;;5.20;77.53;98873.69;5069157;28;20137;-85
2020/12/30 07:26:54;;;;;;;24.98;13.80;;;5.30;93.00;;;5.24;77.22;98880.34;5070833;28;20870;-85
2020/12/30 07:29:21;;;;;;;22.02;12.93;;;5.30;93.00;;;5.22;77.06;98883.25;5069372;28;20080;-86
2020/12/30 07:31:51;;;;;;;26.15;13.77;;;5.30;92.80;;;5.26;77.25;98889.91;5069989;28;20423;-86
2020/12/30 07:34:22;;;;;;;25.88;14.50;;;5.50;93.00;;;5.23;77.33;98886.75;5070747;28;20049;-86
2020/12/30 07:36:50;;;;;;;29.13;14.18;;;5.30;92.70;;;5.27;76.80;98893.44;5069254;28;20607;-86
2020/12/30 07:39:28;;;;;;;24.48;13.82;;;5.30;92.50;;;5.24;77.04;98901.94;5070497;28;20041;-86
2020/12/30 07:41:55;;;;;;;24.67;14.32;;;5.30;92.20;;;5.25;77.11;98904.44;5069426;28;20059;-85
2020/12/30 07:44:23;;;;;;;27.83;14.07;;;5.30;92.10;;;5.27;77.05;98906.94;5070999;28;20040;-87
2020/12/30 07:46:51;;;;;;;27.33;14.85;;;5.30;92.20;;;5.23;76.95;98911.88;5071207;28;20037;-86
2020/12/30 07:49:21;;;;;;;23.98;13.30;;;5.30;92.10;;;5.28;77.38;98909.44;5069620;28;20147;-87
2020/12/30 07:51:50;;;;;;;28.35;14.48;;;5.30;92.40;;;5.32;76.96;98915.28;5071043;28;20044;-87
2020/12/30 07:54:19;;;;;;;30.35;14.93;;;5.40;92.40;;;5.32;76.88;98927.94;5071409;28;20373;-86
2020/12/30 07:56:47;;;;;;;24.92;14.23;;;5.40;92.30;;;5.37;77.16;98929.06;5070982;28;20457;-86
2020/12/30 07:59:24;;;;;;;31.98;15.35;;;5.40;92.00;;;5.35;77.13;98931.09;5070674;28;20131;-87
2020/12/30 08:02:00;;;;;;;28.73;15.05;;;5.40;92.00;;;5.35;76.70;98936.50;5071028;28;20067;-87
2020/12/30 08:04:28;;;;;;;29.25;15.05;;;5.40;92.00;;;5.37;76.56;98939.00;5071034;28;20064;-87
2020/12/30 08:06:55;;;;;;;28.15;14.70;;;5.40;91.80;;;5.39;76.60;98943.19;5071004;28;20119;-87
2020/12/30 08:09:28;;;;;;;26.30;14.90;;;5.50;92.10;;;5.41;76.55;98951.94;5066535;28;20041;-86
2020/12/30 08:12:00;;;;;;;27.75;14.65;;;5.40;91.80;;;5.43;76.70;98951.75;5070985;28;20048;-86
2020/12/30 08:14:28;;;;;;;27.85;14.57;;;5.50;92.10;;;5.43;76.37;98959.84;5071002;28;20582;-86
2020/12/30 08:16:58;;;;;;;25.35;14.13;;;5.50;91.90;;;5.47;76.80;98951.16;5071636;28;20507;-84
2020/12/30 08:19:38;;;;;;;26.30;15.55;;;5.50;91.80;;;5.54;76.19;98963.88;5071792;28;20032;-86
2020/12/30 08:22:08;;;;;;;29.75;15.20;;;5.50;91.80;;;5.53;75.96;98964.91;5070864;28;20045;-85
2020/12/30 08:24:40;;;;;;;25.40;14.30;;;5.50;92.10;;;5.50;75.49;98960.72;5070873;28;20044;-85
2020/12/30 08:27:07;;;;;;;;;;;5.50;91.40;;;5.47;76.10;98963.81;5071135;28;20127;-85
2020/12/30 08:29:36;;;;;;;26.95;14.38;;;5.50;91.30;;;5.48;76.26;98963.63;5071979;28;19963;-84
2020/12/30 08:32:12;;;;;;;25.50;14.07;;;5.50;91.20;;;5.51;75.99;98970.50;5069249;28;20132;-84
2020/12/30 08:34:45;;;;;;;25.98;14.63;;;5.60;91.60;;;5.51;76.43;98975.06;5066141;28;20171;-84
2020/12/30 08:37:22;;;;;;;27.30;14.75;;;5.50;91.40;;;5.54;75.96;98982.78;5072492;28;20123;-84
2020/12/30 08:40:07;;;;;;;24.75;13.90;;;5.60;91.30;;;5.52;76.35;98984.81;5074769;28;20037;-85
2020/12/30 08:43:15;;;;;;;28.08;14.95;;;5.60;91.20;;;5.55;75.89;98976.34;5073523;28;20404;-85
2020/12/30 08:46:03;;;;;;;26.25;14.75;;;5.60;91.10;;;5.53;76.28;98987.34;5074184;28;20072;-85
2020/12/30 08:48:33;;;;;;;25.17;14.05;;;5.60;91.30;;;5.53;75.81;98992.72;5076317;28;20040;-84
2020/12/30 08:51:00;;;;;;;25.90;14.77;;;5.60;91.20;;;5.54;76.18;98988.16;5075516;28;20052;-84
2020/12/30 08:53:35;;;;;;;30.33;15.00;;;5.60;90.90;;;5.52;76.12;98993.78;5073631;28;20185;-83
2020/12/30 08:56:04;;;;;;;25.02;13.25;;;5.60;90.90;;;5.44;76.06;99000.09;5079105;28;20040;-83
2020/12/30 08:58:31;;;;;;;27.90;14.68;;;5.60;90.80;;;5.55;76.11;99003.34;5078739;28;20055;-83
2020/12/30 09:01:00;;;;;;;26.65;14.13;;;5.60;90.60;;;5.56;75.89;98996.91;5079034;28;20549;-83
2020/12/30 09:03:29;;;;;;;25.88;15.05;;;5.70;90.80;;;5.57;76.10;99009.38;5079826;28;20044;-83
2020/12/30 09:05:57;;;;;;;24.92;14.65;;;5.70;91.10;;;5.59;75.92;99001.94;5079080;28;20059;-83
2020/12/30 09:08:26;;;;;;;26.02;14.48;;;5.70;91.00;;;5.62;75.92;99001.56;5079110;28;20044;-83
2020/12/30 09:10:53;;;;;;;27.48;14.40;;;5.70;90.80;;;5.57;75.82;99004.81;5079414;28;20050;-84
2020/12/30 09:13:22;;;;;;;27.10;13.98;;;5.80;90.80;;;5.59;75.84;99012.72;5077847;28;20083;-84
2020/12/30 09:15:54;;;;;;;25.88;14.23;;;5.80;90.90;;;5.65;76.32;99007.41;5075820;28;20079;-85
2020/12/30 09:18:22;;;;;;;25.75;14.05;;;5.90;91.00;;;5.61;75.69;99014.19;5073364;28;20040;-84
2020/12/30 09:20:48;;;;;;;24.92;14.43;;;5.80;90.50;;;5.64;76.10;99004.91;5073335;28;20045;-84
2020/12/30 09:23:15;;;;;;;28.27;14.90;;;5.80;90.70;;;5.67;76.26;99009.91;5073299;28;20511;-84
2020/12/30 09:25:42;;;;;;;27.50;14.75;;;5.90;90.80;;;5.67;76.19;99020.69;5073127;28;20064;-84
2020/12/30 09:28:17;;;;;;;23.65;13.48;;;5.90;90.50;;;5.68;76.18;99006.19;5072897;28;20044;-85
2020/12/30 09:30:45;;;;;;;27.38;14.38;;;5.90;90.70;;;5.65;76.56;99006.56;5072975;28;20481;-85
2020/12/30 09:33:14;;;;;;;26.00;14.63;;;5.90;90.60;;;5.67;76.50;99016.16;5072847;28;20536;-84
2020/12/30 09:35:42;;;;;;;30.10;14.90;;;5.90;90.70;;;5.65;76.59;99017.34;5072899;28;20079;-85
2020/12/30 09:38:09;;;;;;;26.83;14.38;;;5.90;90.60;;;5.69;76.92;99018.66;5072570;28;20143;-85
2020/12/30 09:40:44;;;;;;;25.83;14.57;;;6.00;90.70;;;5.74;76.77;99024.31;5072775;28;20115;-85
2020/12/30 09:43:13;;;;;;;25.77;14.07;;;6.00;90.60;;;5.78;76.54;99022.09;5072616;28;20044;-84
2020/12/30 09:45:41;;;;;;;27.73;15.07;;;6.00;90.50;;;5.73;76.60;99019.97;5073181;28;20040;-84
2020/12/30 09:48:13;;;;;;;27.38;13.80;;;6.00;90.70;;;5.74;76.90;99020.78;5071860;28;20115;-85
2020/12/30 09:50:41;;;;;;;29.83;15.23;;;6.00;90.50;;;5.78;76.73;99033.72;5073533;28;20043;-84
2020/12/30 09:53:08;;;;;;;24.90;13.70;;;6.00;90.60;;;5.77;76.95;99025.78;5075606;28;20080;-84
2020/12/30 09:55:35;;;;;;;28.50;15.73;;;6.00;90.80;;;5.82;76.69;99026.06;5076102;28;20040;-85
2020/12/30 09:58:02;;;;;;;30.95;15.75;;;6.00;91.10;;;5.82;77.01;99032.28;5072870;28;20127;-84
2020/12/30 10:00:29;;;;;;;30.02;15.85;;;6.00;91.20;;;5.78;76.70;99032.88;5072563;28;20044;-84
2020/12/30 10:02:56;;;;;;;29.63;16.05;;;6.00;91.10;;;5.75;76.78;99034.09;5072469;28;20123;-85
2020/12/30 10:05:24;;;;;;;32.97;17.23;;;6.00;91.30;;;5.77;77.23;99033.88;5072428;28;20457;-84
2020/12/30 10:07:51;;;;;;;32.40;16.48;;;6.10;91.50;;;5.75;77.40;99031.41;5071962;28;20052;-85
2020/12/30 10:10:18;;;;;;;33.78;15.75;;;6.00;91.50;;;5.80;77.29;99025.44;5072324;28;20044;-84
2020/12/30 10:12:44;;;;;;;32.13;17.10;;;6.00;91.60;;;5.82;77.46;99042.25;5072040;28;20151;-84
2020/12/30 10:15:12;;;;;;;28.60;16.10;;;6.00;91.60;;;5.81;77.62;99044.13;5070406;28;20143;-84
2020/12/30 10:17:40;;;;;;;31.65;16.88;;;6.00;92.00;;;5.83;77.27;99042.09;5070342;28;20072;-85
2020/12/30 10:20:09;;;;;;;29.85;16.08;;;6.00;91.80;;;5.82;77.43;99047.66;5071482;28;20416;-84
2020/12/30 10:22:38;;;;;;;28.83;16.55;;;6.00;91.80;;;5.83;77.94;99049.34;5072294;28;20128;-84
2020/12/30 10:25:06;;;;;;;30.10;16.85;;;6.00;92.10;;;5.82;77.91;99051.19;5071913;28;20083;-84
2020/12/30 10:27:33;;;;;;;29.17;15.80;;;6.10;92.40;;;5.79;78.14;99051.59;5071486;28;20040;-84
2020/12/30 10:30:00;;;;;;;31.58;15.68;;;6.00;92.30;;;5.77;78.06;99050.94;5066921;28;20076;-84
2020/12/30 10:32:26;;;;;;;31.85;16.50;;;6.00;92.10;;;5.78;78.23;99055.31;5070668;28;20106;-84